Terminal Aerodrome Forecast
Issued by NWS

Home | Current Version | Previous Version | Text Only | Print | Product List | Glossary On
Versions: 1 2 3 4 5 6 7 8 9 10 11 12 13 14 15 16 17 18 19 20 21 22 23 24 25 26 27 28 29 30 31 32 33 34 35 36 37 38 39 40 41 42 43 44 45 46 47 48 49
000
FTUS45 KBOU 041734
TAFAPA
TAF
KAPA 041734Z 0418/0518 08007KT P6SM SCT018 BKN035 OVC080
     FM042000 12008KT P6SM VCTS SCT030 BKN050CB
      TEMPO 0421/0501 3SM -TSRA BKN030CB
     FM050100 11008KT 5SM -RA BR BKN020 OVC040
     FM050600 11009KT 3SM -SHRA BR BKN010 OVC020
     FM051600 11008KT 5SM -SHRA BKN018 OVC025=

USA.gov is the U.S. government's official web portal to all federal, state and local government web resources and services.